sensor_id;sensor_type;location;lat;lon;timestamp;pressure;altitude;pressure_sealevel;temperature;humidity
20860;BME280;10590;48.154;11.514;2023-06-05T00:04:20;95701.59;;;17.71;53.99
20860;BME280;10590;48.154;11.514;2023-06-05T00:09:44;95705.84;;;17.52;55.31
20860;BME280;10590;48.154;11.514;2023-06-05T00:15:06;95704.72;;;17.54;55.42
20860;BME280;10590;48.154;11.514;2023-06-05T00:20:30;95698.97;;;17.55;54.84
20860;BME280;10590;48.154;11.514;2023-06-05T00:25:52;95684.16;;;17.45;54.93
20860;BME280;10590;48.154;11.514;2023-06-05T00:31:14;95689.53;;;17.45;54.91
20860;BME280;10590;48.154;11.514;2023-06-05T00:36:39;95691.59;;;17.33;55.92
20860;BME280;10590;48.154;11.514;2023-06-05T00:42:01;95684.91;;;17.27;56.67
20860;BME280;10590;48.154;11.514;2023-06-05T00:47:23;95680.53;;;17.18;57.11
20860;BME280;10590;48.154;11.514;2023-06-05T00:52:47;95680.66;;;17.26;57.65
20860;BME280;10590;48.154;11.514;2023-06-05T00:58:09;95674.78;;;17.39;57.73
20860;BME280;10590;48.154;11.514;2023-06-05T01:03:31;95674.50;;;17.25;58.92
20860;BME280;10590;48.154;11.514;2023-06-05T01:08:57;95673.56;;;17.17;59.37
20860;BME280;10590;48.154;11.514;2023-06-05T01:14:22;95670.09;;;16.98;60.75
20860;BME280;10590;48.154;11.514;2023-06-05T01:19:44;95665.91;;;16.81;61.95
20860;BME280;10590;48.154;11.514;2023-06-05T01:25:08;95667.38;;;16.78;62.82
20860;BME280;10590;48.154;11.514;2023-06-05T01:30:36;95660.38;;;16.74;63.37
20860;BME280;10590;48.154;11.514;2023-06-05T01:36:05;95661.22;;;16.78;63.72
20860;BME280;10590;48.154;11.514;2023-06-05T01:41:28;95665.34;;;16.72;64.72
20860;BME280;10590;48.154;11.514;2023-06-05T01:46:51;95654.94;;;16.54;65.29
20860;BME280;10590;48.154;11.514;2023-06-05T01:52:13;95656.84;;;16.54;65.32
20860;BME280;10590;48.154;11.514;2023-06-05T01:57:36;95656.09;;;16.22;66.88
20860;BME280;10590;48.154;11.514;2023-06-05T02:02:58;95659.59;;;16.07;67.53
20860;BME280;10590;48.154;11.514;2023-06-05T02:08:20;95662.63;;;16.21;67.16
20860;BME280;10590;48.154;11.514;2023-06-05T02:13:44;95664.09;;;16.18;66.96
20860;BME280;10590;48.154;11.514;2023-06-05T02:19:10;95665.69;;;16.04;67.87
20860;BME280;10590;48.154;11.514;2023-06-05T02:24:33;95671.31;;;15.99;68.22
20860;BME280;10590;48.154;11.514;2023-06-05T02:29:56;95657.41;;;16.12;67.32
20860;BME280;10590;48.154;11.514;2023-06-05T02:35:18;95667.25;;;16.05;67.63
20860;BME280;10590;48.154;11.514;2023-06-05T02:40:40;95672.63;;;16.05;68.02
20860;BME280;10590;48.154;11.514;2023-06-05T02:46:04;95673.13;;;16.10;67.76
20860;BME280;10590;48.154;11.514;2023-06-05T02:51:26;95677.91;;;16.01;68.44
20860;BME280;10590;48.154;11.514;2023-06-05T02:56:48;95660.38;;;16.07;67.90
20860;BME280;10590;48.154;11.514;2023-06-05T03:02:11;95668.47;;;15.91;68.40
20860;BME280;10590;48.154;11.514;2023-06-05T03:07:33;95669.16;;;15.88;68.73
20860;BME280;10590;48.154;11.514;2023-06-05T03:12:55;95662.72;;;15.77;69.22
20860;BME280;10590;48.154;11.514;2023-06-05T03:18:18;95668.81;;;15.74;69.39
20860;BME280;10590;48.154;11.514;2023-06-05T03:23:41;95663.50;;;15.78;69.35
20860;BME280;10590;48.154;11.514;2023-06-05T03:29:03;95661.09;;;15.45;70.69
20860;BME280;10590;48.154;11.514;2023-06-05T03:34:27;95660.03;;;15.62;70.41
20860;BME280;10590;48.154;11.514;2023-06-05T03:39:50;95659.44;;;15.40;71.32
20860;BME280;10590;48.154;11.514;2023-06-05T03:45:12;95664.81;;;15.40;71.06
20860;BME280;10590;48.154;11.514;2023-06-05T03:50:37;95666.03;;;15.43;71.00
20860;BME280;10590;48.154;11.514;2023-06-05T03:55:59;95663.59;;;15.38;71.13
20860;BME280;10590;48.154;11.514;2023-06-05T04:01:21;95669.59;;;15.47;70.67
20860;BME280;10590;48.154;11.514;2023-06-05T04:06:45;95662.81;;;15.53;70.60
20860;BME280;10590;48.154;11.514;2023-06-05T04:12:07;95668.81;;;15.46;70.96
20860;BME280;10590;48.154;11.514;2023-06-05T04:17:30;95670.72;;;15.46;70.89
20860;BME280;10590;48.154;11.514;2023-06-05T04:22:54;95666.56;;;15.48;70.58
20860;BME280;10590;48.154;11.514;2023-06-05T04:28:16;95663.44;;;15.46;71.12
20860;BME280;10590;48.154;11.514;2023-06-05T04:33:39;95665.16;;;15.54;70.79
20860;BME280;10590;48.154;11.514;2023-06-05T04:39:03;95662.13;;;15.56;70.77
20860;BME280;10590;48.154;11.514;2023-06-05T04:44:31;95671.84;;;15.45;70.64
20860;BME280;10590;48.154;11.514;2023-06-05T04:49:53;95674.69;;;15.64;70.21
20860;BME280;10590;48.154;11.514;2023-06-05T04:55:16;95671.06;;;15.72;69.60
20860;BME280;10590;48.154;11.514;2023-06-05T05:00:38;95683.47;;;15.92;69.27
20860;BME280;10590;48.154;11.514;2023-06-05T05:06:01;95687.88;;;16.32;67.75
20860;BME280;10590;48.154;11.514;2023-06-05T05:11:24;95677.72;;;16.25;68.23
20860;BME280;10590;48.154;11.514;2023-06-05T05:16:47;95680.75;;;16.24;68.42
20860;BME280;10590;48.154;11.514;2023-06-05T05:22:10;95689.50;;;16.52;67.14
20860;BME280;10590;48.154;11.514;2023-06-05T05:27:33;95685.06;;;16.44;67.45
20860;BME280;10590;48.154;11.514;2023-06-05T05:32:55;95691.06;;;16.69;66.68
20860;BME280;10590;48.154;11.514;2023-06-05T05:38:17;95691.28;;;16.80;66.63
20860;BME280;10590;48.154;11.514;2023-06-05T05:43:40;95688.53;;;16.96;65.91
20860;BME280;10590;48.154;11.514;2023-06-05T05:49:02;95690.88;;;16.97;65.56
20860;BME280;10590;48.154;11.514;2023-06-05T05:54:24;95697.13;;;17.01;65.99
20860;BME280;10590;48.154;11.514;2023-06-05T05:59:49;95678.75;;;17.07;65.40
20860;BME280;10590;48.154;11.514;2023-06-05T06:05:10;95695.44;;;17.12;65.57
20860;BME280;10590;48.154;11.514;2023-06-05T06:10:34;95689.09;;;17.05;65.17
20860;BME280;10590;48.154;11.514;2023-06-05T06:15:58;95694.50;;;17.24;65.13
20860;BME280;10590;48.154;11.514;2023-06-05T06:21:20;95706.56;;;17.30;65.14
20860;BME280;10590;48.154;11.514;2023-06-05T06:26:42;95698.13;;;16.93;66.29
20860;BME280;10590;48.154;11.514;2023-06-05T06:32:05;95694.16;;;17.87;63.68
20860;BME280;10590;48.154;11.514;2023-06-05T06:37:28;95702.38;;;16.94;66.25
20860;BME280;10590;48.154;11.514;2023-06-05T06:42:50;95715.47;;;16.61;67.41
20860;BME280;10590;48.154;11.514;2023-06-05T06:48:14;95707.56;;;17.22;66.00
20860;BME280;10590;48.154;11.514;2023-06-05T06:53:37;95710.28;;;17.41;64.91
20860;BME280;10590;48.154;11.514;2023-06-05T06:59:01;95716.00;;;18.01;62.90
20860;BME280;10590;48.154;11.514;2023-06-05T07:04:26;95713.91;;;17.91;63.04
20860;BME280;10590;48.154;11.514;2023-06-05T07:09:49;95718.56;;;18.63;61.00
20860;BME280;10590;48.154;11.514;2023-06-05T07:15:12;95714.78;;;19.24;59.36
20860;BME280;10590;48.154;11.514;2023-06-05T07:20:36;95712.75;;;18.15;61.37
20860;BME280;10590;48.154;11.514;2023-06-05T07:25:58;95702.47;;;19.00;59.98
20860;BME280;10590;48.154;11.514;2023-06-05T07:31:20;95716.97;;;19.82;59.12
20860;BME280;10590;48.154;11.514;2023-06-05T07:36:45;95709.06;;;21.06;53.95
20860;BME280;10590;48.154;11.514;2023-06-05T07:42:07;95712.91;;;20.97;53.11
20860;BME280;10590;48.154;11.514;2023-06-05T07:47:29;95719.13;;;21.02;54.25
20860;BME280;10590;48.154;11.514;2023-06-05T07:52:52;95717.63;;;21.08;55.24
20860;BME280;10590;48.154;11.514;2023-06-05T07:58:14;95707.22;;;21.20;52.09
20860;BME280;10590;48.154;11.514;2023-06-05T08:03:36;95701.31;;;22.27;49.20
20860;BME280;10590;48.154;11.514;2023-06-05T08:08:59;95706.97;;;21.57;51.02
20860;BME280;10590;48.154;11.514;2023-06-05T08:14:22;95700.78;;;21.64;51.76
20860;BME280;10590;48.154;11.514;2023-06-05T08:19:44;95704.75;;;23.09;47.47
20860;BME280;10590;48.154;11.514;2023-06-05T08:25:08;95696.78;;;24.27;43.40
20860;BME280;10590;48.154;11.514;2023-06-05T08:30:30;95698.44;;;25.03;40.42
20860;BME280;10590;48.154;11.514;2023-06-05T08:35:52;95689.56;;;25.63;40.63
20860;BME280;10590;48.154;11.514;2023-06-05T08:41:15;95686.19;;;27.07;36.60
20860;BME280;10590;48.154;11.514;2023-06-05T08:46:39;95689.13;;;26.49;37.24
20860;BME280;10590;48.154;11.514;2023-06-05T08:52:06;95691.81;;;27.39;35.84
20860;BME280;10590;48.154;11.514;2023-06-05T08:57:29;95691.78;;;26.02;38.05
20860;BME280;10590;48.154;11.514;2023-06-05T09:02:51;95691.97;;;25.88;38.11
20860;BME280;10590;48.154;11.514;2023-06-05T09:08:14;95690.69;;;26.23;37.23
20860;BME280;10590;48.154;11.514;2023-06-05T09:13:45;95687.66;;;26.18;37.61
20860;BME280;10590;48.154;11.514;2023-06-05T09:19:08;95688.78;;;27.34;35.81
20860;BME280;10590;48.154;11.514;2023-06-05T09:24:31;95683.34;;;24.91;38.92
20860;BME280;10590;48.154;11.514;2023-06-05T09:30:02;95683.75;;;27.88;33.74
20860;BME280;10590;48.154;11.514;2023-06-05T09:35:25;95680.34;;;27.64;35.17
20860;BME280;10590;48.154;11.514;2023-06-05T09:40:47;95670.41;;;26.91;34.67
20860;BME280;10590;48.154;11.514;2023-06-05T09:46:12;95668.56;;;29.26;31.56
20860;BME280;10590;48.154;11.514;2023-06-05T09:51:34;95666.16;;;24.57;39.81
20860;BME280;10590;48.154;11.514;2023-06-05T09:56:58;95665.69;;;25.94;38.07
20860;BME280;10590;48.154;11.514;2023-06-05T10:02:24;95660.97;;;25.07;37.79
20860;BME280;10590;48.154;11.514;2023-06-05T10:07:47;95661.72;;;27.75;33.21
20860;BME280;10590;48.154;11.514;2023-06-05T10:13:14;95650.78;;;27.16;33.09
20860;BME280;10590;48.154;11.514;2023-06-05T10:18:38;95652.66;;;28.11;33.78
20860;BME280;10590;48.154;11.514;2023-06-05T10:24:04;95644.25;;;26.43;35.20
20860;BME280;10590;48.154;11.514;2023-06-05T10:29:52;95644.03;;;26.34;36.63
20860;BME280;10590;48.154;11.514;2023-06-05T10:35:24;95643.13;;;27.99;33.43
20860;BME280;10590;48.154;11.514;2023-06-05T10:40:53;95641.69;;;25.52;36.53
20860;BME280;10590;48.154;11.514;2023-06-05T10:46:28;95631.72;;;25.38;37.78
20860;BME280;10590;48.154;11.514;2023-06-05T10:51:53;95632.63;;;24.56;39.26
20860;BME280;10590;48.154;11.514;2023-06-05T10:57:16;95640.69;;;27.69;31.86
20860;BME280;10590;48.154;11.514;2023-06-05T11:02:46;95625.91;;;28.64;29.61
20860;BME280;10590;48.154;11.514;2023-06-05T11:08:14;95621.34;;;27.76;32.38
20860;BME280;10590;48.154;11.514;2023-06-05T11:13:53;95625.53;;;25.00;37.43
20860;BME280;10590;48.154;11.514;2023-06-05T11:19:35;95614.94;;;28.93;31.00
20860;BME280;10590;48.154;11.514;2023-06-05T11:25:26;95619.44;;;30.08;29.01
20860;BME280;10590;48.154;11.514;2023-06-05T11:30:48;95614.84;;;25.16;36.63
20860;BME280;10590;48.154;11.514;2023-06-05T11:36:10;95614.72;;;24.55;37.94
20860;BME280;10590;48.154;11.514;2023-06-05T11:41:34;95614.13;;;24.37;37.53
20860;BME280;10590;48.154;11.514;2023-06-05T11:46:56;95614.50;;;23.87;39.90
20860;BME280;10590;48.154;11.514;2023-06-05T11:52:19;95618.31;;;23.97;39.84
20860;BME280;10590;48.154;11.514;2023-06-05T11:57:44;95603.31;;;22.91;42.67
20860;BME280;10590;48.154;11.514;2023-06-05T12:03:16;95603.91;;;23.30;41.43
20860;BME280;10590;48.154;11.514;2023-06-05T12:08:39;95598.38;;;24.03;40.38
20860;BME280;10590;48.154;11.514;2023-06-05T12:14:03;95599.34;;;24.34;38.47
20860;BME280;10590;48.154;11.514;2023-06-05T12:19:25;95589.63;;;25.89;36.16
20860;BME280;10590;48.154;11.514;2023-06-05T12:24:47;95588.94;;;25.28;38.46
20860;BME280;10590;48.154;11.514;2023-06-05T12:30:11;95587.19;;;23.91;41.54
20860;BME280;10590;48.154;11.514;2023-06-05T12:35:34;95584.25;;;22.94;43.31
20860;BME280;10590;48.154;11.514;2023-06-05T12:40:56;95572.81;;;23.28;42.97
20860;BME280;10590;48.154;11.514;2023-06-05T12:46:20;95580.09;;;22.61;44.66
20860;BME280;10590;48.154;11.514;2023-06-05T12:51:43;95575.81;;;22.60;44.78
20860;BME280;10590;48.154;11.514;2023-06-05T12:57:05;95577.38;;;22.58;45.52
20860;BME280;10590;48.154;11.514;2023-06-05T13:02:29;95570.38;;;22.60;45.56
20860;BME280;10590;48.154;11.514;2023-06-05T13:07:53;95576.97;;;22.66;45.54
20860;BME280;10590;48.154;11.514;2023-06-05T13:13:16;95572.41;;;22.06;46.98
20860;BME280;10590;48.154;11.514;2023-06-05T13:18:39;95572.34;;;22.38;46.37
20860;BME280;10590;48.154;11.514;2023-06-05T13:24:01;95571.41;;;23.02;45.74
20860;BME280;10590;48.154;11.514;2023-06-05T13:29:23;95573.84;;;22.64;46.86
20860;BME280;10590;48.154;11.514;2023-06-05T13:34:46;95567.78;;;23.23;45.45
20860;BME280;10590;48.154;11.514;2023-06-05T13:40:09;95566.91;;;22.38;47.71
20860;BME280;10590;48.154;11.514;2023-06-05T13:45:31;95573.53;;;22.30;48.13
20860;BME280;10590;48.154;11.514;2023-06-05T13:50:55;95566.94;;;21.99;47.63
20860;BME280;10590;48.154;11.514;2023-06-05T13:56:18;95570.19;;;23.06;45.36
20860;BME280;10590;48.154;11.514;2023-06-05T14:01:40;95556.50;;;22.08;48.37
20860;BME280;10590;48.154;11.514;2023-06-05T14:07:04;95561.16;;;22.08;48.54
20860;BME280;10590;48.154;11.514;2023-06-05T14:12:26;95568.84;;;22.41;46.87
20860;BME280;10590;48.154;11.514;2023-06-05T14:17:49;95558.25;;;22.79;45.94
20860;BME280;10590;48.154;11.514;2023-06-05T14:23:13;95552.16;;;21.29;49.42
20860;BME280;10590;48.154;11.514;2023-06-05T14:28:35;95554.56;;;22.05;47.69
20860;BME280;10590;48.154;11.514;2023-06-05T14:33:57;95539.72;;;22.38;46.95
20860;BME280;10590;48.154;11.514;2023-06-05T14:39:21;95547.09;;;22.38;47.37
20860;BME280;10590;48.154;11.514;2023-06-05T14:44:43;95544.44;;;23.84;42.60
20860;BME280;10590;48.154;11.514;2023-06-05T14:50:06;95543.81;;;23.66;43.45
20860;BME280;10590;48.154;11.514;2023-06-05T14:55:30;95543.56;;;22.51;45.33
20860;BME280;10590;48.154;11.514;2023-06-05T15:00:52;95550.28;;;23.24;44.59
20860;BME280;10590;48.154;11.514;2023-06-05T15:06:14;95550.41;;;22.99;44.51
20860;BME280;10590;48.154;11.514;2023-06-05T15:11:37;95549.13;;;21.77;47.25
20860;BME280;10590;48.154;11.514;2023-06-05T15:16:59;95544.44;;;21.38;48.43
20860;BME280;10590;48.154;11.514;2023-06-05T15:22:21;95538.22;;;21.62;48.13
20860;BME280;10590;48.154;11.514;2023-06-05T15:27:45;95550.25;;;21.51;49.29
20860;BME280;10590;48.154;11.514;2023-06-05T15:33:08;95547.13;;;21.38;48.99
20860;BME280;10590;48.154;11.514;2023-06-05T15:38:31;95554.53;;;21.84;48.17
20860;BME280;10590;48.154;11.514;2023-06-05T15:43:54;95551.00;;;22.30;47.92
20860;BME280;10590;48.154;11.514;2023-06-05T15:49:16;95546.75;;;21.36;49.51
20860;BME280;10590;48.154;11.514;2023-06-05T15:54:38;95542.09;;;21.33;49.48
20860;BME280;10590;48.154;11.514;2023-06-05T16:00:02;95543.56;;;21.06;49.68
20860;BME280;10590;48.154;11.514;2023-06-05T16:05:24;95552.13;;;21.22;50.83
20860;BME280;10590;48.154;11.514;2023-06-05T16:10:46;95555.94;;;20.92;51.81
20860;BME280;10590;48.154;11.514;2023-06-05T16:16:09;95545.50;;;21.02;51.37
20860;BME280;10590;48.154;11.514;2023-06-05T16:21:31;95555.31;;;21.59;49.70
20860;BME280;10590;48.154;11.514;2023-06-05T16:26:54;95556.81;;;21.28;50.93
20860;BME280;10590;48.154;11.514;2023-06-05T16:32:18;95566.28;;;20.73;52.43
20860;BME280;10590;48.154;11.514;2023-06-05T16:37:40;95566.03;;;20.99;52.19
20860;BME280;10590;48.154;11.514;2023-06-05T16:43:02;95569.72;;;20.59;52.52
20860;BME280;10590;48.154;11.514;2023-06-05T16:48:25;95549.22;;;20.61;53.09
20860;BME280;10590;48.154;11.514;2023-06-05T16:53:47;95551.75;;;20.29;53.77
20860;BME280;10590;48.154;11.514;2023-06-05T16:59:11;95547.59;;;19.88;54.40
20860;BME280;10590;48.154;11.514;2023-06-05T17:04:35;95551.72;;;19.71;54.93
20860;BME280;10590;48.154;11.514;2023-06-05T17:09:57;95563.28;;;19.64;55.13
20860;BME280;10590;48.154;11.514;2023-06-05T17:15:19;95561.00;;;19.29;56.13
20860;BME280;10590;48.154;11.514;2023-06-05T17:20:42;95570.81;;;19.45;55.56
20860;BME280;10590;48.154;11.514;2023-06-05T17:26:04;95571.09;;;19.77;54.96
20860;BME280;10590;48.154;11.514;2023-06-05T17:31:27;95579.63;;;19.38;56.26
20860;BME280;10590;48.154;11.514;2023-06-05T17:36:50;95575.09;;;19.08;56.56
20860;BME280;10590;48.154;11.514;2023-06-05T17:42:12;95584.69;;;19.06;57.40
20860;BME280;10590;48.154;11.514;2023-06-05T17:47:37;95593.31;;;19.15;57.33
20860;BME280;10590;48.154;11.514;2023-06-05T17:53:00;95595.00;;;19.27;56.76
20860;BME280;10590;48.154;11.514;2023-06-05T17:58:22;95600.41;;;18.93;56.96
20860;BME280;10590;48.154;11.514;2023-06-05T18:03:44;95607.88;;;19.40;56.07
20860;BME280;10590;48.154;11.514;2023-06-05T18:09:07;95595.59;;;18.80;58.42
20860;BME280;10590;48.154;11.514;2023-06-05T18:14:29;95594.13;;;18.86;58.00
20860;BME280;10590;48.154;11.514;2023-06-05T18:19:52;95609.16;;;18.83;58.07
20860;BME280;10590;48.154;11.514;2023-06-05T18:25:16;95598.59;;;19.04;57.92
20860;BME280;10590;48.154;11.514;2023-06-05T18:30:38;95603.09;;;19.27;56.75
20860;BME280;10590;48.154;11.514;2023-06-05T18:36:00;95593.63;;;19.47;56.41
20860;BME280;10590;48.154;11.514;2023-06-05T18:41:23;95592.63;;;18.88;57.49
20860;BME280;10590;48.154;11.514;2023-06-05T18:46:45;95596.88;;;18.89;57.83
20860;BME280;10590;48.154;11.514;2023-06-05T18:52:07;95600.44;;;18.97;57.68
20860;BME280;10590;48.154;11.514;2023-06-05T18:57:31;95604.41;;;18.73;58.20
20860;BME280;10590;48.154;11.514;2023-06-05T19:02:53;95594.09;;;19.16;57.03
20860;BME280;10590;48.154;11.514;2023-06-05T19:08:15;95605.00;;;18.89;58.12
20860;BME280;10590;48.154;11.514;2023-06-05T19:13:39;95599.28;;;18.98;58.15
20860;BME280;10590;48.154;11.514;2023-06-05T19:19:01;95616.81;;;19.07;58.11
20860;BME280;10590;48.154;11.514;2023-06-05T19:24:26;95617.84;;;18.99;58.06
20860;BME280;10590;48.154;11.514;2023-06-05T19:29:49;95636.34;;;18.94;58.69
20860;BME280;10590;48.154;11.514;2023-06-05T19:35:11;95627.47;;;18.97;58.69
20860;BME280;10590;48.154;11.514;2023-06-05T19:40:37;95637.75;;;18.84;59.14
20860;BME280;10590;48.154;11.514;2023-06-05T19:46:00;95648.22;;;18.59;61.22
20860;BME280;10590;48.154;11.514;2023-06-05T19:51:23;95648.50;;;18.24;63.30
20860;BME280;10590;48.154;11.514;2023-06-05T19:56:45;95636.97;;;18.27;63.22
20860;BME280;10590;48.154;11.514;2023-06-05T20:02:09;95641.38;;;17.67;65.84
20860;BME280;10590;48.154;11.514;2023-06-05T20:07:33;95639.34;;;17.83;65.42
20860;BME280;10590;48.154;11.514;2023-06-05T20:12:54;95640.00;;;17.76;65.50
20860;BME280;10590;48.154;11.514;2023-06-05T20:18:18;95635.78;;;17.56;66.23
20860;BME280;10590;48.154;11.514;2023-06-05T20:23:40;95643.78;;;16.91;68.83
20860;BME280;10590;48.154;11.514;2023-06-05T20:29:02;95632.53;;;17.28;68.10
20860;BME280;10590;48.154;11.514;2023-06-05T20:34:28;95650.41;;;17.55;67.38
20860;BME280;10590;48.154;11.514;2023-06-05T20:39:50;95647.16;;;17.46;67.59
20860;BME280;10590;48.154;11.514;2023-06-05T20:45:12;95651.25;;;17.59;67.24
20860;BME280;10590;48.154;11.514;2023-06-05T20:50:35;95646.88;;;17.51;67.64
20860;BME280;10590;48.154;11.514;2023-06-05T20:56:01;95639.91;;;17.31;68.48
20860;BME280;10590;48.154;11.514;2023-06-05T21:01:24;95652.41;;;17.39;68.14
20860;BME280;10590;48.154;11.514;2023-06-05T21:06:50;95646.38;;;17.45;68.16
20860;BME280;10590;48.154;11.514;2023-06-05T21:12:12;95648.16;;;17.18;69.03
20860;BME280;10590;48.154;11.514;2023-06-05T21:17:34;95637.09;;;17.04;69.51
20860;BME280;10590;48.154;11.514;2023-06-05T21:22:59;95635.53;;;17.03;69.72
20860;BME280;10590;48.154;11.514;2023-06-05T21:28:20;95637.53;;;16.87;70.66
20860;BME280;10590;48.154;11.514;2023-06-05T21:33:42;95635.34;;;16.93;70.73
20860;BME280;10590;48.154;11.514;2023-06-05T21:39:06;95647.16;;;16.69;72.00
20860;BME280;10590;48.154;11.514;2023-06-05T21:44:28;95641.59;;;16.62;72.23
20860;BME280;10590;48.154;11.514;2023-06-05T21:49:49;95650.75;;;16.57;72.24
20860;BME280;10590;48.154;11.514;2023-06-05T21:55:13;95637.38;;;16.45;73.43
20860;BME280;10590;48.154;11.514;2023-06-05T22:00:35;95634.50;;;16.03;75.14
20860;BME280;10590;48.154;11.514;2023-06-05T22:05:57;95644.94;;;16.04;75.53
20860;BME280;10590;48.154;11.514;2023-06-05T22:11:23;95644.38;;;16.14;75.05
20860;BME280;10590;48.154;11.514;2023-06-05T22:16:45;95642.41;;;15.96;76.43
20860;BME280;10590;48.154;11.514;2023-06-05T22:22:08;95642.34;;;15.92;76.58
20860;BME280;10590;48.154;11.514;2023-06-05T22:27:34;95641.88;;;16.06;76.20
20860;BME280;10590;48.154;11.514;2023-06-05T22:32:56;95651.63;;;15.95;76.79
20860;BME280;10590;48.154;11.514;2023-06-05T22:38:18;95658.38;;;15.88;77.01
20860;BME280;10590;48.154;11.514;2023-06-05T22:43:48;95642.59;;;16.03;76.26
20860;BME280;10590;48.154;11.514;2023-06-05T22:49:10;95645.88;;;15.96;75.53
20860;BME280;10590;48.154;11.514;2023-06-05T22:54:32;95661.34;;;15.99;75.98
20860;BME280;10590;48.154;11.514;2023-06-05T22:59:55;95656.56;;;15.92;76.45
20860;BME280;10590;48.154;11.514;2023-06-05T23:05:19;95657.44;;;15.81;77.03
20860;BME280;10590;48.154;11.514;2023-06-05T23:10:41;95646.75;;;15.84;77.25
20860;BME280;10590;48.154;11.514;2023-06-05T23:16:08;95641.22;;;15.77;77.60
20860;BME280;10590;48.154;11.514;2023-06-05T23:21:31;95609.19;;;15.72;77.46
20860;BME280;10590;48.154;11.514;2023-06-05T23:26:53;95643.56;;;15.79;78.56
20860;BME280;10590;48.154;11.514;2023-06-05T23:32:16;95637.72;;;15.92;77.97
20860;BME280;10590;48.154;11.514;2023-06-05T23:37:38;95633.47;;;15.91;77.92
20860;BME280;10590;48.154;11.514;2023-06-05T23:43:00;95636.94;;;15.92;78.07
20860;BME280;10590;48.154;11.514;2023-06-05T23:48:23;95632.59;;;16.03;77.57
20860;BME280;10590;48.154;11.514;2023-06-05T23:53:45;95632.44;;;15.96;78.21
20860;BME280;10590;48.154;11.514;2023-06-05T23:59:07;95635.19;;;16.00;78.45
